createdAt,value
2022-07-28T00:00:16.834Z,78.70
2022-07-28T00:02:44.458Z,79.63
2022-07-28T00:05:12.093Z,79.01
2022-07-28T00:07:41.044Z,79.33
2022-07-28T00:10:09.909Z,79.97
2022-07-28T00:12:37.757Z,79.66
2022-07-28T00:15:06.389Z,81.04
2022-07-28T00:17:34.010Z,81.47
2022-07-28T00:20:01.645Z,82.14
2022-07-28T00:22:29.321Z,81.28
2022-07-28T00:24:58.397Z,81.01
2022-07-28T00:27:26.057Z,81.95
2022-07-28T00:29:53.634Z,80.98
2022-07-28T00:32:21.539Z,81.60
2022-07-28T00:34:52.854Z,80.86
2022-07-28T00:37:21.305Z,82.00
2022-07-28T00:39:48.923Z,83.08
2022-07-28T00:42:19.874Z,84.11
2022-07-28T00:44:47.653Z,83.77
2022-07-28T00:47:15.791Z,82.06
2022-07-28T00:49:45.121Z,82.49
2022-07-28T00:52:13.804Z,86.19
2022-07-28T00:54:41.835Z,86.71
2022-07-28T00:57:09.445Z,85.98
2022-07-28T00:59:38.428Z,86.14
2022-07-28T01:02:06.318Z,85.62
2022-07-28T01:04:34.362Z,85.71
2022-07-28T01:07:14.465Z,86.62
2022-07-28T01:09:50.020Z,86.35
2022-07-28T01:12:28.122Z,85.94
2022-07-28T01:15:05.443Z,86.70
2022-07-28T01:17:37.990Z,85.56
2022-07-28T01:20:09.677Z,86.40
2022-07-28T01:22:41.223Z,86.93
2022-07-28T01:25:17.838Z,87.19
2022-07-28T01:27:54.750Z,88.04
2022-07-28T01:30:34.517Z,89.80
2022-07-28T01:33:05.963Z,88.32
2022-07-28T01:35:39.129Z,89.48
2022-07-28T01:38:09.054Z,90.56
2022-07-28T01:40:37.788Z,88.66
2022-07-28T01:43:08.400Z,88.63
2022-07-28T01:45:38.340Z,89.34
2022-07-28T01:48:07.208Z,88.79
2022-07-28T01:50:35.619Z,89.07
2022-07-28T01:53:04.223Z,88.49
2022-07-28T01:55:32.797Z,89.73
2022-07-28T01:58:00.947Z,89.89
2022-07-28T02:00:29.443Z,89.24
2022-07-28T02:02:59.506Z,89.95
2022-07-28T02:05:27.673Z,89.64
2022-07-28T02:07:56.985Z,90.91
2022-07-28T02:10:24.955Z,90.87
2022-07-28T02:12:53.119Z,91.14
2022-07-28T02:15:22.171Z,91.88
2022-07-28T02:17:51.005Z,92.99
2022-07-28T02:20:21.027Z,93.37
2022-07-28T02:22:51.282Z,93.59
2022-07-28T02:25:20.434Z,93.84
2022-07-28T02:27:50.623Z,93.90
2022-07-28T02:30:19.560Z,94.57
2022-07-28T02:32:50.881Z,94.58
2022-07-28T02:35:27.911Z,94.95
2022-07-28T02:38:02.427Z,95.23
2022-07-28T02:40:35.771Z,95.77
2022-07-28T02:43:04.492Z,97.25
2022-07-28T02:45:33.010Z,97.90
2022-07-28T02:48:03.127Z,97.55
2022-07-28T02:50:32.140Z,97.26
2022-07-28T02:53:01.955Z,98.18
2022-07-28T02:55:43.857Z,98.42
2022-07-28T02:58:12.443Z,97.83
2022-07-28T03:00:41.371Z,97.93
2022-07-28T03:03:09.930Z,97.98
2022-07-28T03:05:40.995Z,99.50
2022-07-28T03:08:08.818Z,100.00
2022-07-28T03:10:36.453Z,98.98
2022-07-28T03:13:05.358Z,99.06
2022-07-28T03:15:33.010Z,98.12
2022-07-28T03:18:01.169Z,97.78
2022-07-28T03:20:29.343Z,99.38
2022-07-28T03:22:59.145Z,99.63
2022-07-28T03:25:29.728Z,99.91
2022-07-28T03:27:59.201Z,98.86
2022-07-28T03:30:29.841Z,98.72
2022-07-28T03:33:00.640Z,99.53
2022-07-28T03:35:28.867Z,98.66
2022-07-28T03:38:01.346Z,100.00
2022-07-28T03:40:29.918Z,100.00
2022-07-28T03:42:58.898Z,99.89
2022-07-28T03:45:26.575Z,100.00
2022-07-28T03:47:55.866Z,100.00
2022-07-28T03:50:24.114Z,100.00
2022-07-28T03:52:51.826Z,100.00
2022-07-28T03:55:20.795Z,100.00
2022-07-28T03:57:48.637Z,100.00
2022-07-28T04:00:17.818Z,100.00
2022-07-28T04:02:45.927Z,100.00
2022-07-28T04:05:14.684Z,100.00
2022-07-28T04:07:42.829Z,100.00
2022-07-28T04:10:12.658Z,100.00
2022-07-28T04:12:53.007Z,100.00
2022-07-28T04:15:20.741Z,100.00
2022-07-28T04:17:49.443Z,100.00
2022-07-28T04:20:18.062Z,100.00
2022-07-28T04:22:46.141Z,100.00
2022-07-28T04:25:14.189Z,100.00
2022-07-28T04:27:42.486Z,100.00
2022-07-28T04:30:13.384Z,100.00
2022-07-28T04:32:41.052Z,100.00
2022-07-28T04:35:12.009Z,100.00
2022-07-28T04:37:43.534Z,100.00
2022-07-28T04:40:12.409Z,100.00
2022-07-28T04:42:40.647Z,100.00
2022-07-28T04:45:11.530Z,100.00
2022-07-28T04:47:42.439Z,100.00
2022-07-28T04:50:12.745Z,100.00
2022-07-28T04:52:40.982Z,100.00
2022-07-28T04:55:09.637Z,100.00
2022-07-28T04:57:37.369Z,100.00
2022-07-28T05:00:13.187Z,100.00
2022-07-28T05:02:43.112Z,100.00
2022-07-28T05:05:11.446Z,100.00
2022-07-28T05:07:40.140Z,100.00
2022-07-28T05:10:09.919Z,100.00
2022-07-28T05:12:37.771Z,100.00
2022-07-28T05:15:05.933Z,100.00
2022-07-28T05:17:33.533Z,100.00
2022-07-28T05:20:03.591Z,100.00
2022-07-28T05:22:42.109Z,100.00
2022-07-28T05:25:17.720Z,100.00
2022-07-28T05:27:46.187Z,100.00
2022-07-28T05:30:14.659Z,100.00
2022-07-28T05:32:42.423Z,100.00
2022-07-28T05:35:11.716Z,100.00
2022-07-28T05:37:39.521Z,100.00
2022-07-28T05:40:11.821Z,100.00
2022-07-28T05:42:40.613Z,100.00
2022-07-28T05:45:15.825Z,100.00
2022-07-28T05:47:46.297Z,100.00
2022-07-28T05:50:15.960Z,100.00
2022-07-28T05:52:43.692Z,100.00
2022-07-28T05:55:12.040Z,100.00
2022-07-28T05:57:40.042Z,100.00
2022-07-28T06:00:09.349Z,100.00
2022-07-28T06:02:37.557Z,100.00
2022-07-28T06:05:06.488Z,100.00
2022-07-28T06:07:43.054Z,100.00
2022-07-28T06:10:12.389Z,100.00
2022-07-28T06:12:42.531Z,100.00
2022-07-28T06:15:15.845Z,100.00
2022-07-28T06:17:43.643Z,100.00
2022-07-28T06:20:12.560Z,100.00
2022-07-28T06:22:46.116Z,100.00
2022-07-28T06:25:15.388Z,100.00
2022-07-28T06:27:43.265Z,100.00
2022-07-28T06:30:11.591Z,100.00
2022-07-28T06:32:39.205Z,100.00
2022-07-28T06:35:08.067Z,97.97
2022-07-28T06:37:35.911Z,99.51
2022-07-28T06:40:07.282Z,99.03
2022-07-28T06:42:34.903Z,95.92
2022-07-28T06:45:02.539Z,96.54
2022-07-28T06:47:30.155Z,95.29
2022-07-28T06:49:57.761Z,95.70
2022-07-28T06:52:25.414Z,93.53
2022-07-28T06:54:58.312Z,92.97
2022-07-28T06:57:33.530Z,92.65
2022-07-28T07:00:02.497Z,93.06
2022-07-28T07:02:30.174Z,92.81
2022-07-28T07:04:57.767Z,92.71
2022-07-28T07:07:26.340Z,90.50
2022-07-28T07:09:53.958Z,92.70
2022-07-28T07:12:21.641Z,90.62
2022-07-28T07:14:50.679Z,89.98
2022-07-28T07:17:18.333Z,88.83
2022-07-28T07:19:45.957Z,90.74
2022-07-28T07:22:14.742Z,87.18
2022-07-28T07:24:42.330Z,86.40
2022-07-28T07:27:09.949Z,85.78
2022-07-28T07:29:37.595Z,84.46
2022-07-28T07:32:10.509Z,84.91
2022-07-28T07:34:39.392Z,82.64
2022-07-28T07:37:07.556Z,80.84
2022-07-28T07:39:35.159Z,81.44
2022-07-28T07:42:02.793Z,82.00
2022-07-28T07:44:30.421Z,78.37
2022-07-28T07:46:58.308Z,78.10
2022-07-28T07:49:45.497Z,77.36
2022-07-28T07:52:13.856Z,77.44
2022-07-28T07:54:41.678Z,77.79
2022-07-28T07:57:09.368Z,78.49
2022-07-28T07:59:37.242Z,74.95
2022-07-28T08:02:05.235Z,75.51
2022-07-28T08:04:37.759Z,74.27
2022-07-28T08:07:06.439Z,72.63
2022-07-28T08:09:34.514Z,71.50
2022-07-28T08:12:02.238Z,72.77
2022-07-28T08:14:29.881Z,70.96
2022-07-28T08:16:59.274Z,72.26
2022-07-28T08:19:27.054Z,68.65
2022-07-28T08:21:56.380Z,69.34
2022-07-28T08:24:32.662Z,67.20
2022-07-28T08:27:01.574Z,66.57
2022-07-28T08:29:29.290Z,66.52
2022-07-28T08:31:57.120Z,68.39
2022-07-28T08:34:29.908Z,65.68
2022-07-28T08:37:03.918Z,65.55
2022-07-28T08:39:31.864Z,64.32
2022-07-28T08:42:03.613Z,63.19
2022-07-28T08:44:41.858Z,63.51
2022-07-28T08:47:11.974Z,62.87
2022-07-28T08:49:40.621Z,62.12
2022-07-28T08:52:11.581Z,61.48
2022-07-28T08:54:42.504Z,61.04
2022-07-28T08:57:11.640Z,61.59
2022-07-28T08:59:39.883Z,61.32
2022-07-28T09:02:10.802Z,61.42
2022-07-28T09:04:39.867Z,60.30
2022-07-28T09:07:07.657Z,59.11
2022-07-28T09:09:36.865Z,62.09
2022-07-28T09:12:05.763Z,60.42
2022-07-28T09:14:33.421Z,59.22
2022-07-28T09:17:02.887Z,58.67
2022-07-28T09:19:34.074Z,58.42
2022-07-28T09:22:03.630Z,60.24
2022-07-28T09:24:37.103Z,56.33
2022-07-28T09:27:07.516Z,55.59
2022-07-28T09:29:36.069Z,56.63
2022-07-28T09:32:04.129Z,53.99
2022-07-28T09:34:41.436Z,54.59
2022-07-28T09:37:09.417Z,55.18
2022-07-28T09:39:38.352Z,55.68
2022-07-28T09:42:06.420Z,52.72
2022-07-28T09:44:34.011Z,54.19
2022-07-28T09:47:01.729Z,54.45
2022-07-28T09:49:43.169Z,54.30
2022-07-28T09:52:11.127Z,53.19
2022-07-28T09:54:41.266Z,51.63
2022-07-28T09:57:11.786Z,51.87
2022-07-28T09:59:43.785Z,52.60
2022-07-28T10:02:24.461Z,53.26
2022-07-28T10:04:54.330Z,51.66
2022-07-28T10:07:22.641Z,51.03
2022-07-28T10:10:01.583Z,52.82
2022-07-28T10:12:31.091Z,54.90
2022-07-28T10:15:00.272Z,50.51
2022-07-28T10:17:30.200Z,53.56
2022-07-28T10:19:59.005Z,51.34
2022-07-28T10:22:29.683Z,49.44
2022-07-28T10:25:00.874Z,51.01
2022-07-28T10:27:29.154Z,48.59
2022-07-28T10:29:59.821Z,48.49
2022-07-28T10:32:29.623Z,48.38
2022-07-28T10:35:04.912Z,49.35
2022-07-28T10:37:35.875Z,50.02
2022-07-28T10:40:10.814Z,49.94
2022-07-28T10:42:40.028Z,47.52
2022-07-28T10:45:10.305Z,48.59
2022-07-28T10:47:37.944Z,47.56
2022-07-28T10:50:06.368Z,47.54
2022-07-28T10:52:52.553Z,46.22
2022-07-28T10:55:31.916Z,49.38
2022-07-28T10:58:12.562Z,46.67
2022-07-28T11:00:55.871Z,48.85
2022-07-28T11:03:42.725Z,50.07
2022-07-28T11:06:40.231Z,48.92
2022-07-28T11:09:23.882Z,47.79
2022-07-28T11:11:54.198Z,48.94
2022-07-28T11:14:37.630Z,46.84
2022-07-28T11:17:14.411Z,46.68
2022-07-28T11:20:25.897Z,48.73
2022-07-28T11:22:43.252Z,47.39
2022-07-28T11:25:18.618Z,45.29
2022-07-28T11:28:05.955Z,44.15
2022-07-28T11:30:58.221Z,42.75
2022-07-28T11:33:27.449Z,46.73
2022-07-28T11:35:59.695Z,45.15
2022-07-28T11:38:28.212Z,45.02
2022-07-28T11:40:57.193Z,45.74
2022-07-28T11:43:36.456Z,44.29
2022-07-28T11:46:23.971Z,42.93
2022-07-28T11:49:24.829Z,43.63
2022-07-28T11:52:22.730Z,45.67
2022-07-28T11:54:55.690Z,43.71
2022-07-28T11:57:25.886Z,46.07
2022-07-28T12:00:00.287Z,44.22
2022-07-28T12:02:32.829Z,44.39
2022-07-28T12:05:09.363Z,43.86
2022-07-28T12:07:50.563Z,43.99
2022-07-28T12:11:02.874Z,44.05
2022-07-28T12:13:28.182Z,43.84
2022-07-28T12:15:57.418Z,44.90
2022-07-28T12:18:25.386Z,43.71
2022-07-28T12:20:54.812Z,42.10
2022-07-28T12:23:44.236Z,44.97
2022-07-28T12:26:19.236Z,43.69
2022-07-28T12:28:56.133Z,44.27
2022-07-28T12:31:25.957Z,43.17
2022-07-28T12:33:56.449Z,43.38
2022-07-28T12:36:24.635Z,42.12
2022-07-28T12:38:53.256Z,44.48
2022-07-28T12:41:21.293Z,43.16
2022-07-28T12:43:52.763Z,43.62
2022-07-28T12:46:22.577Z,43.73
2022-07-28T12:48:55.761Z,43.37
2022-07-28T12:51:31.489Z,42.74
2022-07-28T12:53:59.216Z,43.04
2022-07-28T12:56:26.872Z,44.52
2022-07-28T12:59:10.522Z,45.22
2022-07-28T13:01:51.342Z,42.31
2022-07-28T13:04:42.682Z,41.07
2022-07-28T13:07:11.653Z,42.95
2022-07-28T13:09:47.073Z,43.70
2022-07-28T13:12:18.522Z,43.60
2022-07-28T13:14:48.445Z,40.54
2022-07-28T13:17:16.188Z,44.69
2022-07-28T13:19:45.494Z,42.26
2022-07-28T13:22:13.145Z,43.38
2022-07-28T13:24:40.754Z,41.49
2022-07-28T13:27:08.855Z,42.48
2022-07-28T13:29:36.547Z,42.45
2022-07-28T13:32:04.523Z,41.22
2022-07-28T13:34:32.397Z,42.52
2022-07-28T13:37:01.478Z,42.95
2022-07-28T13:39:29.064Z,43.68
2022-07-28T13:41:59.113Z,42.74
2022-07-28T13:44:27.429Z,41.40
2022-07-28T13:46:55.520Z,42.04
2022-07-28T13:49:24.145Z,42.43
2022-07-28T13:51:51.988Z,41.16
2022-07-28T13:54:21.336Z,42.16
2022-07-28T13:56:49.507Z,42.92
2022-07-28T13:59:17.423Z,42.99
2022-07-28T14:01:49.890Z,43.00
2022-07-28T14:04:18.848Z,44.19
2022-07-28T14:06:49.381Z,43.82
2022-07-28T14:09:18.762Z,41.71
2022-07-28T14:11:49.845Z,41.98
2022-07-28T14:14:23.697Z,43.72
2022-07-28T14:16:52.441Z,42.96
2022-07-28T14:19:23.265Z,44.02
2022-07-28T14:22:10.518Z,44.42
2022-07-28T14:24:40.731Z,42.81
2022-07-28T14:27:10.547Z,42.11
2022-07-28T14:29:38.302Z,43.54
2022-07-28T14:32:06.596Z,42.54
2022-07-28T14:34:34.503Z,43.99
2022-07-28T14:37:05.773Z,41.39
2022-07-28T14:39:37.395Z,41.95
2022-07-28T14:42:05.639Z,41.81
2022-07-28T14:44:34.821Z,42.92
2022-07-28T14:47:02.721Z,41.58
2022-07-28T14:49:31.499Z,42.27
2022-07-28T14:51:59.458Z,41.98
2022-07-28T14:54:27.673Z,43.11
2022-07-28T14:56:55.345Z,42.17
2022-07-28T14:59:22.982Z,41.56
2022-07-28T15:01:52.303Z,41.58
2022-07-28T15:04:20.132Z,41.80
2022-07-28T15:06:48.213Z,42.00
2022-07-28T15:09:15.934Z,42.71
2022-07-28T15:11:46.227Z,42.89
2022-07-28T15:14:14.720Z,41.99
2022-07-28T15:16:43.385Z,43.58
2022-07-28T15:19:12.511Z,41.95
2022-07-28T15:21:40.794Z,42.55
2022-07-28T15:24:10.148Z,42.87
2022-07-28T15:26:37.811Z,43.09
2022-07-28T15:29:05.747Z,44.20
2022-07-28T15:31:33.660Z,43.90
2022-07-28T15:34:01.561Z,43.29
2022-07-28T15:36:34.535Z,43.43
2022-07-28T15:39:02.242Z,42.66
2022-07-28T15:41:29.893Z,42.60
2022-07-28T15:43:57.973Z,44.31
2022-07-28T15:46:25.612Z,42.62
2022-07-28T15:48:54.474Z,43.80
2022-07-28T15:51:25.800Z,42.66
2022-07-28T15:53:56.377Z,44.34
2022-07-28T15:56:26.252Z,43.77
2022-07-28T15:58:53.890Z,43.76
2022-07-28T16:01:21.641Z,43.81
2022-07-28T16:03:49.473Z,43.68
2022-07-28T16:06:17.280Z,43.85
2022-07-28T16:08:52.882Z,42.88
2022-07-28T16:11:21.975Z,43.18
2022-07-28T16:13:54.363Z,43.62
2022-07-28T16:16:22.210Z,43.88
2022-07-28T16:18:56.062Z,44.76
2022-07-28T16:21:32.452Z,44.40
2022-07-28T16:24:03.334Z,42.66
2022-07-28T16:26:36.733Z,44.76
2022-07-28T16:29:04.935Z,44.93
2022-07-28T16:31:33.733Z,44.61
2022-07-28T16:34:01.491Z,45.09
2022-07-28T16:36:29.315Z,43.95
2022-07-28T16:38:59.287Z,45.48
2022-07-28T16:41:47.492Z,47.23
2022-07-28T16:44:16.587Z,45.29
2022-07-28T16:46:49.760Z,44.01
2022-07-28T16:49:18.938Z,44.68
2022-07-28T16:51:46.753Z,44.59
2022-07-28T16:54:15.165Z,44.68
2022-07-28T16:56:43.010Z,44.44
2022-07-28T16:59:10.737Z,45.31
2022-07-28T17:01:45.631Z,45.25
2022-07-28T17:04:14.702Z,45.38
2022-07-28T17:06:43.404Z,44.93
2022-07-28T17:09:11.254Z,44.81
2022-07-28T17:11:40.746Z,44.67
2022-07-28T17:14:08.837Z,45.21
2022-07-28T17:16:36.983Z,47.83
2022-07-28T17:19:06.551Z,46.27
2022-07-28T17:21:36.307Z,46.22
2022-07-28T17:24:04.685Z,46.51
2022-07-28T17:29:22.929Z,47.36
2022-07-28T17:31:51.843Z,46.78
2022-07-28T17:34:21.012Z,45.47
2022-07-28T17:36:50.438Z,47.60
2022-07-28T17:39:18.475Z,46.85
2022-07-28T17:41:46.185Z,47.32
2022-07-28T17:44:14.885Z,47.25
2022-07-28T17:46:43.047Z,47.62
2022-07-28T17:49:10.861Z,47.55
2022-07-28T17:51:40.036Z,47.71
2022-07-28T17:54:07.902Z,48.03
2022-07-28T17:56:38.496Z,48.39
2022-07-28T17:59:08.565Z,48.58
2022-07-28T18:01:36.293Z,48.08
2022-07-28T18:04:04.321Z,47.74
2022-07-28T18:06:35.420Z,48.06
2022-07-28T18:09:06.778Z,47.48
2022-07-28T18:11:36.081Z,48.76
2022-07-28T18:14:05.651Z,48.52
2022-07-28T18:16:34.306Z,48.71
2022-07-28T18:19:02.921Z,49.27
2022-07-28T18:21:30.841Z,49.49
2022-07-28T18:23:58.416Z,49.45
2022-07-28T18:26:27.369Z,50.33
2022-07-28T18:28:54.981Z,49.79
2022-07-28T18:31:22.643Z,50.74
2022-07-28T18:33:50.418Z,50.46
2022-07-28T18:36:18.044Z,50.93
2022-07-28T18:38:45.667Z,51.01
2022-07-28T18:41:13.284Z,51.02
2022-07-28T18:43:42.274Z,50.78
2022-07-28T18:46:10.021Z,51.03
2022-07-28T18:48:39.475Z,51.34
2022-07-28T18:51:07.117Z,51.99
2022-07-28T18:53:35.015Z,52.01
2022-07-28T18:56:02.640Z,53.03
2022-07-28T18:58:30.304Z,52.78
2022-07-28T19:00:59.246Z,54.10
2022-07-28T19:03:26.923Z,55.33
2022-07-28T19:05:54.684Z,55.35
2022-07-28T19:08:22.448Z,56.07
2022-07-28T19:10:50.149Z,56.28
2022-07-28T19:13:17.842Z,56.26
2022-07-28T19:15:45.556Z,56.78
2022-07-28T19:18:14.679Z,56.26
2022-07-28T19:20:42.420Z,56.71
2022-07-28T19:23:10.036Z,57.66
2022-07-28T19:25:39.362Z,58.15
2022-07-28T19:28:07.480Z,58.21
2022-07-28T19:30:35.376Z,58.70
2022-07-28T19:33:03.686Z,59.95
2022-07-28T19:35:32.675Z,61.06
2022-07-28T19:38:02.593Z,62.13
2022-07-28T19:40:31.986Z,61.98
2022-07-28T19:43:00.079Z,63.13
2022-07-28T19:45:27.738Z,62.65
2022-07-28T19:47:55.573Z,64.38
2022-07-28T19:50:24.072Z,63.60
2022-07-28T19:52:53.141Z,65.04
2022-07-28T19:55:21.775Z,64.88
2022-07-28T19:57:49.490Z,64.29
2022-07-28T20:00:18.250Z,65.18
2022-07-28T20:02:46.609Z,64.83
2022-07-28T20:05:15.363Z,66.43
2022-07-28T20:07:43.304Z,66.32
2022-07-28T20:10:13.995Z,65.77
2022-07-28T20:12:42.001Z,68.83
2022-07-28T20:15:10.538Z,67.13
2022-07-28T20:17:39.659Z,66.80
2022-07-28T20:20:09.110Z,66.74
2022-07-28T20:22:37.434Z,65.32
2022-07-28T20:25:05.783Z,64.78
2022-07-28T20:27:40.464Z,65.58
2022-07-28T20:30:09.737Z,64.71
2022-07-28T20:32:37.858Z,64.76
2022-07-28T20:35:06.700Z,64.74
2022-07-28T20:37:36.090Z,65.19
2022-07-28T20:40:05.686Z,65.12
2022-07-28T20:42:33.374Z,65.72
2022-07-28T20:45:02.418Z,66.70
2022-07-28T20:47:32.776Z,67.69
2022-07-28T20:50:00.813Z,67.84
2022-07-28T20:52:28.710Z,67.31
2022-07-28T20:54:56.303Z,64.99
2022-07-28T20:57:24.025Z,63.57
2022-07-28T20:59:52.218Z,65.92
2022-07-28T21:02:21.892Z,66.24
2022-07-28T21:04:50.468Z,65.72
2022-07-28T21:08:04.429Z,65.66
2022-07-28T21:10:07.610Z,65.38
2022-07-28T21:12:36.950Z,65.66
2022-07-28T21:15:04.908Z,64.71
2022-07-28T21:17:33.897Z,64.95
2022-07-28T21:20:01.549Z,64.87
2022-07-28T21:22:29.418Z,65.26
2022-07-28T21:24:57.152Z,64.39
2022-07-28T21:27:24.967Z,62.86
2022-07-28T21:32:18.401Z,61.95
2022-07-28T21:34:47.378Z,61.75
2022-07-28T21:37:14.980Z,59.50
2022-07-28T21:39:42.760Z,59.50
2022-07-28T21:42:10.377Z,59.40
2022-07-28T21:44:38.066Z,59.40
2022-07-28T21:47:05.888Z,61.26
2022-07-28T21:49:33.500Z,61.32
2022-07-28T21:52:02.468Z,60.76
2022-07-28T21:54:30.112Z,60.88
2022-07-28T21:56:58.131Z,61.23
2022-07-28T21:59:25.787Z,61.72
2022-07-28T22:01:53.480Z,62.61
2022-07-28T22:04:21.505Z,61.71
2022-07-28T22:06:49.407Z,62.99
2022-07-28T22:09:18.398Z,62.89
2022-07-28T22:11:48.216Z,63.32
2022-07-28T22:14:16.106Z,63.58
2022-07-28T22:16:44.063Z,65.04
2022-07-28T22:19:12.503Z,66.39
2022-07-28T22:21:40.162Z,66.43
2022-07-28T22:24:08.313Z,66.42
2022-07-28T22:26:37.390Z,67.59
2022-07-28T22:29:04.997Z,67.34
2022-07-28T22:31:32.838Z,68.37
2022-07-28T22:34:00.446Z,68.48
2022-07-28T22:36:28.059Z,68.73
2022-07-28T22:38:55.889Z,71.24
2022-07-28T22:41:23.725Z,72.50
2022-07-28T22:43:52.661Z,72.19
2022-07-28T22:46:20.367Z,74.13
2022-07-28T22:48:48.084Z,75.50
2022-07-28T22:51:16.755Z,73.59
2022-07-28T22:53:44.349Z,78.16
2022-07-28T22:56:13.376Z,79.89
2022-07-28T22:58:41.190Z,80.57
2022-07-28T23:01:10.255Z,80.50
2022-07-28T23:03:38.367Z,81.74
2022-07-28T23:06:06.256Z,79.04
2022-07-28T23:08:34.405Z,80.01
2022-07-28T23:11:02.421Z,79.09
2022-07-28T23:13:30.442Z,80.75
2022-07-28T23:15:58.364Z,80.64
2022-07-28T23:18:27.865Z,80.39
2022-07-28T23:20:55.705Z,83.64
2022-07-28T23:23:23.848Z,83.07
2022-07-28T23:25:51.720Z,81.80
2022-07-28T23:28:19.422Z,83.50
2022-07-28T23:30:48.314Z,85.05
2022-07-28T23:33:56.494Z,87.12
2022-07-28T23:36:16.898Z,90.10
2022-07-28T23:38:55.112Z,86.15
2022-07-28T23:41:23.075Z,85.11
2022-07-28T23:43:51.668Z,87.44
2022-07-28T23:46:19.470Z,90.14
2022-07-28T23:48:47.476Z,90.54
2022-07-28T23:51:16.657Z,90.74
2022-07-28T23:53:45.896Z,91.50
2022-07-28T23:56:15.174Z,91.84
2022-07-28T23:58:43.275Z,90.98
